sensor_id;sensor_type;location;lat;lon;timestamp;P1;durP1;ratioP1;P2;durP2;ratioP2
81367;SDS011;70823;50.056;14.398;2023-08-30T00:01:37;3.03;;;2.23;;
81367;SDS011;70823;50.056;14.398;2023-08-30T00:04:02;3.13;;;1.83;;
81367;SDS011;70823;50.056;14.398;2023-08-30T00:06:31;2.28;;;1.77;;
81367;SDS011;70823;50.056;14.398;2023-08-30T00:08:56;2.30;;;2.00;;
81367;SDS011;70823;50.056;14.398;2023-08-30T00:11:23;3.30;;;2.47;;
81367;SDS011;70823;50.056;14.398;2023-08-30T00:13:48;2.90;;;2.40;;
81367;SDS011;70823;50.056;14.398;2023-08-30T00:16:14;2.05;;;1.77;;
81367;SDS011;70823;50.056;14.398;2023-08-30T00:18:41;2.70;;;1.77;;
81367;SDS011;70823;50.056;14.398;2023-08-30T00:21:07;2.08;;;1.70;;
81367;SDS011;70823;50.056;14.398;2023-08-30T00:23:32;2.20;;;1.70;;
81367;SDS011;70823;50.056;14.398;2023-08-30T00:25:57;2.57;;;1.70;;
81367;SDS011;70823;50.056;14.398;2023-08-30T00:28:23;2.47;;;2.08;;
81367;SDS011;70823;50.056;14.398;2023-08-30T00:30:52;2.97;;;2.10;;
81367;SDS011;70823;50.056;14.398;2023-08-30T00:33:19;2.40;;;2.15;;
81367;SDS011;70823;50.056;14.398;2023-08-30T00:35:44;2.23;;;1.50;;
81367;SDS011;70823;50.056;14.398;2023-08-30T00:38:09;2.20;;;1.60;;
81367;SDS011;70823;50.056;14.398;2023-08-30T00:40:38;3.13;;;1.80;;
81367;SDS011;70823;50.056;14.398;2023-08-30T00:43:04;2.25;;;1.63;;
81367;SDS011;70823;50.056;14.398;2023-08-30T00:45:31;2.30;;;1.60;;
81367;SDS011;70823;50.056;14.398;2023-08-30T00:47:57;2.50;;;2.03;;
81367;SDS011;70823;50.056;14.398;2023-08-30T00:50:22;3.70;;;1.75;;
81367;SDS011;70823;50.056;14.398;2023-08-30T00:52:48;3.25;;;1.83;;
81367;SDS011;70823;50.056;14.398;2023-08-30T00:55:13;2.80;;;1.92;;
81367;SDS011;70823;50.056;14.398;2023-08-30T00:57:40;2.00;;;1.80;;
81367;SDS011;70823;50.056;14.398;2023-08-30T01:00:05;2.88;;;1.80;;
81367;SDS011;70823;50.056;14.398;2023-08-30T01:02:31;2.22;;;1.95;;
81367;SDS011;70823;50.056;14.398;2023-08-30T01:04:58;2.20;;;1.88;;
81367;SDS011;70823;50.056;14.398;2023-08-30T01:07:23;2.58;;;1.80;;
81367;SDS011;70823;50.056;14.398;2023-08-30T01:09:48;2.47;;;2.28;;
81367;SDS011;70823;50.056;14.398;2023-08-30T01:12:16;2.05;;;1.70;;
81367;SDS011;70823;50.056;14.398;2023-08-30T01:17:20;2.25;;;1.35;;
81367;SDS011;70823;50.056;14.398;2023-08-30T01:22:57;1.55;;;1.30;;
81367;SDS011;70823;50.056;14.398;2023-08-30T01:28:03;2.08;;;1.50;;
81367;SDS011;70823;50.056;14.398;2023-08-30T01:30:31;3.10;;;1.50;;
81367;SDS011;70823;50.056;14.398;2023-08-30T01:32:58;1.65;;;1.30;;
81367;SDS011;70823;50.056;14.398;2023-08-30T01:35:28;2.25;;;1.50;;
81367;SDS011;70823;50.056;14.398;2023-08-30T01:37:57;2.60;;;1.80;;
81367;SDS011;70823;50.056;14.398;2023-08-30T01:40:24;1.85;;;1.40;;
81367;SDS011;70823;50.056;14.398;2023-08-30T01:42:49;2.10;;;1.65;;
81367;SDS011;70823;50.056;14.398;2023-08-30T01:45:15;1.77;;;1.50;;
81367;SDS011;70823;50.056;14.398;2023-08-30T01:47:41;2.40;;;1.80;;
81367;SDS011;70823;50.056;14.398;2023-08-30T01:50:07;2.17;;;1.90;;
81367;SDS011;70823;50.056;14.398;2023-08-30T01:52:33;1.80;;;1.65;;
81367;SDS011;70823;50.056;14.398;2023-08-30T01:54:59;2.10;;;1.85;;
81367;SDS011;70823;50.056;14.398;2023-08-30T01:57:25;1.88;;;1.50;;
81367;SDS011;70823;50.056;14.398;2023-08-30T01:59:50;2.10;;;1.70;;
81367;SDS011;70823;50.056;14.398;2023-08-30T02:02:15;2.97;;;1.92;;
81367;SDS011;70823;50.056;14.398;2023-08-30T02:04:41;2.70;;;2.17;;
81367;SDS011;70823;50.056;14.398;2023-08-30T02:07:08;2.27;;;2.07;;
81367;SDS011;70823;50.056;14.398;2023-08-30T02:09:39;1.67;;;1.33;;
81367;SDS011;70823;50.056;14.398;2023-08-30T02:12:07;1.73;;;1.63;;
81367;SDS011;70823;50.056;14.398;2023-08-30T02:14:35;2.13;;;1.92;;
81367;SDS011;70823;50.056;14.398;2023-08-30T02:17:02;1.67;;;1.45;;
81367;SDS011;70823;50.056;14.398;2023-08-30T02:19:28;1.85;;;1.30;;
81367;SDS011;70823;50.056;14.398;2023-08-30T02:21:53;1.60;;;1.15;;
81367;SDS011;70823;50.056;14.398;2023-08-30T02:24:18;2.17;;;1.75;;
81367;SDS011;70823;50.056;14.398;2023-08-30T02:26:44;1.40;;;1.30;;
81367;SDS011;70823;50.056;14.398;2023-08-30T02:29:09;1.83;;;1.53;;
81367;SDS011;70823;50.056;14.398;2023-08-30T02:31:35;2.25;;;1.50;;
81367;SDS011;70823;50.056;14.398;2023-08-30T02:34:00;2.53;;;1.73;;
81367;SDS011;70823;50.056;14.398;2023-08-30T02:36:27;1.80;;;1.60;;
81367;SDS011;70823;50.056;14.398;2023-08-30T02:38:52;1.60;;;1.50;;
81367;SDS011;70823;50.056;14.398;2023-08-30T02:41:17;2.27;;;1.63;;
81367;SDS011;70823;50.056;14.398;2023-08-30T02:43:43;1.53;;;1.43;;
81367;SDS011;70823;50.056;14.398;2023-08-30T02:46:08;2.08;;;1.38;;
81367;SDS011;70823;50.056;14.398;2023-08-30T02:48:33;3.00;;;1.80;;
81367;SDS011;70823;50.056;14.398;2023-08-30T02:50:59;2.40;;;1.40;;
81367;SDS011;70823;50.056;14.398;2023-08-30T02:53:24;1.83;;;1.58;;
81367;SDS011;70823;50.056;14.398;2023-08-30T02:55:49;1.42;;;1.20;;
81367;SDS011;70823;50.056;14.398;2023-08-30T02:58:15;1.50;;;1.40;;
81367;SDS011;70823;50.056;14.398;2023-08-30T03:00:40;2.63;;;2.42;;
81367;SDS011;70823;50.056;14.398;2023-08-30T03:03:06;2.17;;;1.70;;
81367;SDS011;70823;50.056;14.398;2023-08-30T03:05:31;1.97;;;1.47;;
81367;SDS011;70823;50.056;14.398;2023-08-30T03:07:56;1.70;;;1.20;;
81367;SDS011;70823;50.056;14.398;2023-08-30T03:10:22;2.50;;;1.57;;
81367;SDS011;70823;50.056;14.398;2023-08-30T03:12:47;1.70;;;1.60;;
81367;SDS011;70823;50.056;14.398;2023-08-30T03:15:12;2.03;;;1.67;;
81367;SDS011;70823;50.056;14.398;2023-08-30T03:17:38;2.00;;;1.70;;
81367;SDS011;70823;50.056;14.398;2023-08-30T03:20:03;1.65;;;1.40;;
81367;SDS011;70823;50.056;14.398;2023-08-30T03:22:30;1.77;;;1.48;;
81367;SDS011;70823;50.056;14.398;2023-08-30T03:24:56;1.20;;;1.10;;
81367;SDS011;70823;50.056;14.398;2023-08-30T03:27:21;1.95;;;1.50;;
81367;SDS011;70823;50.056;14.398;2023-08-30T03:29:46;1.80;;;1.67;;
81367;SDS011;70823;50.056;14.398;2023-08-30T03:32:14;2.42;;;1.50;;
81367;SDS011;70823;50.056;14.398;2023-08-30T03:34:41;1.80;;;1.67;;
81367;SDS011;70823;50.056;14.398;2023-08-30T03:37:09;1.70;;;1.60;;
81367;SDS011;70823;50.056;14.398;2023-08-30T03:39:34;2.08;;;1.42;;
81367;SDS011;70823;50.056;14.398;2023-08-30T03:42:00;1.90;;;1.60;;
81367;SDS011;70823;50.056;14.398;2023-08-30T03:44:25;1.80;;;1.67;;
81367;SDS011;70823;50.056;14.398;2023-08-30T03:46:50;2.70;;;2.13;;
81367;SDS011;70823;50.056;14.398;2023-08-30T03:49:16;1.93;;;1.60;;
81367;SDS011;70823;50.056;14.398;2023-08-30T03:51:41;1.60;;;1.50;;
81367;SDS011;70823;50.056;14.398;2023-08-30T03:54:06;2.43;;;2.23;;
81367;SDS011;70823;50.056;14.398;2023-08-30T03:56:33;2.20;;;1.92;;
81367;SDS011;70823;50.056;14.398;2023-08-30T03:58:58;2.67;;;2.13;;
81367;SDS011;70823;50.056;14.398;2023-08-30T04:01:24;2.42;;;2.03;;
81367;SDS011;70823;50.056;14.398;2023-08-30T04:03:49;1.95;;;1.77;;
81367;SDS011;70823;50.056;14.398;2023-08-30T04:06:14;2.10;;;1.43;;
81367;SDS011;70823;50.056;14.398;2023-08-30T04:08:40;2.10;;;1.57;;
81367;SDS011;70823;50.056;14.398;2023-08-30T04:11:05;1.60;;;1.50;;
81367;SDS011;70823;50.056;14.398;2023-08-30T04:13:30;1.73;;;1.20;;
81367;SDS011;70823;50.056;14.398;2023-08-30T04:15:56;1.98;;;1.77;;
81367;SDS011;70823;50.056;14.398;2023-08-30T04:18:23;2.03;;;1.70;;
81367;SDS011;70823;50.056;14.398;2023-08-30T04:20:49;2.03;;;1.80;;
81367;SDS011;70823;50.056;14.398;2023-08-30T04:23:14;1.83;;;1.52;;
81367;SDS011;70823;50.056;14.398;2023-08-30T04:25:39;1.73;;;1.55;;
81367;SDS011;70823;50.056;14.398;2023-08-30T04:28:05;1.88;;;1.70;;
81367;SDS011;70823;50.056;14.398;2023-08-30T04:30:30;2.25;;;1.70;;
81367;SDS011;70823;50.056;14.398;2023-08-30T04:32:56;1.88;;;1.73;;
81367;SDS011;70823;50.056;14.398;2023-08-30T04:35:21;1.98;;;1.85;;
81367;SDS011;70823;50.056;14.398;2023-08-30T04:37:47;2.15;;;2.05;;
81367;SDS011;70823;50.056;14.398;2023-08-30T04:40:13;1.60;;;1.48;;
81367;SDS011;70823;50.056;14.398;2023-08-30T04:42:39;1.95;;;1.75;;
81367;SDS011;70823;50.056;14.398;2023-08-30T04:45:05;2.35;;;1.73;;
81367;SDS011;70823;50.056;14.398;2023-08-30T04:47:31;1.85;;;1.50;;
81367;SDS011;70823;50.056;14.398;2023-08-30T04:49:57;2.20;;;1.80;;
81367;SDS011;70823;50.056;14.398;2023-08-30T04:52:22;1.77;;;1.67;;
81367;SDS011;70823;50.056;14.398;2023-08-30T04:54:48;2.17;;;1.90;;
81367;SDS011;70823;50.056;14.398;2023-08-30T04:57:14;1.85;;;1.58;;
81367;SDS011;70823;50.056;14.398;2023-08-30T04:59:45;1.60;;;1.50;;
81367;SDS011;70823;50.056;14.398;2023-08-30T05:02:11;1.92;;;1.60;;
81367;SDS011;70823;50.056;14.398;2023-08-30T05:04:36;1.88;;;1.40;;
81367;SDS011;70823;50.056;14.398;2023-08-30T05:07:02;2.10;;;1.83;;
81367;SDS011;70823;50.056;14.398;2023-08-30T05:09:27;1.65;;;1.55;;
81367;SDS011;70823;50.056;14.398;2023-08-30T05:11:53;2.22;;;1.60;;
81367;SDS011;70823;50.056;14.398;2023-08-30T05:14:19;2.35;;;1.58;;
81367;SDS011;70823;50.056;14.398;2023-08-30T05:16:44;1.65;;;1.55;;
81367;SDS011;70823;50.056;14.398;2023-08-30T05:19:10;1.63;;;1.53;;
81367;SDS011;70823;50.056;14.398;2023-08-30T05:21:35;2.43;;;1.87;;
81367;SDS011;70823;50.056;14.398;2023-08-30T05:24:01;2.30;;;1.60;;
81367;SDS011;70823;50.056;14.398;2023-08-30T05:26:26;4.90;;;2.00;;
81367;SDS011;70823;50.056;14.398;2023-08-30T05:28:52;2.57;;;1.83;;
81367;SDS011;70823;50.056;14.398;2023-08-30T05:31:17;2.07;;;1.70;;
81367;SDS011;70823;50.056;14.398;2023-08-30T05:33:42;2.40;;;1.90;;
81367;SDS011;70823;50.056;14.398;2023-08-30T05:36:07;2.50;;;1.60;;
81367;SDS011;70823;50.056;14.398;2023-08-30T05:38:33;1.97;;;1.80;;
81367;SDS011;70823;50.056;14.398;2023-08-30T05:40:58;1.97;;;1.60;;
81367;SDS011;70823;50.056;14.398;2023-08-30T05:43:23;2.30;;;1.85;;
81367;SDS011;70823;50.056;14.398;2023-08-30T05:45:49;2.42;;;1.88;;
81367;SDS011;70823;50.056;14.398;2023-08-30T05:48:14;2.10;;;1.70;;
81367;SDS011;70823;50.056;14.398;2023-08-30T05:50:39;2.80;;;1.87;;
81367;SDS011;70823;50.056;14.398;2023-08-30T05:53:05;2.17;;;1.95;;
81367;SDS011;70823;50.056;14.398;2023-08-30T05:55:31;4.22;;;1.80;;
81367;SDS011;70823;50.056;14.398;2023-08-30T05:57:56;5.27;;;2.37;;
81367;SDS011;70823;50.056;14.398;2023-08-30T06:00:21;4.03;;;2.73;;
81367;SDS011;70823;50.056;14.398;2023-08-30T06:02:48;3.75;;;2.28;;
81367;SDS011;70823;50.056;14.398;2023-08-30T06:05:13;2.60;;;1.90;;
81367;SDS011;70823;50.056;14.398;2023-08-30T06:07:38;2.67;;;2.40;;
81367;SDS011;70823;50.056;14.398;2023-08-30T06:10:04;3.70;;;2.57;;
81367;SDS011;70823;50.056;14.398;2023-08-30T06:12:29;3.13;;;2.15;;
81367;SDS011;70823;50.056;14.398;2023-08-30T06:14:55;2.70;;;2.10;;
81367;SDS011;70823;50.056;14.398;2023-08-30T06:17:20;3.13;;;1.83;;
81367;SDS011;70823;50.056;14.398;2023-08-30T06:19:46;3.13;;;2.00;;
81367;SDS011;70823;50.056;14.398;2023-08-30T06:22:11;2.60;;;1.70;;
81367;SDS011;70823;50.056;14.398;2023-08-30T06:24:37;3.10;;;2.03;;
81367;SDS011;70823;50.056;14.398;2023-08-30T06:27:02;3.25;;;2.53;;
81367;SDS011;70823;50.056;14.398;2023-08-30T06:29:28;3.42;;;2.20;;
81367;SDS011;70823;50.056;14.398;2023-08-30T06:31:53;4.83;;;2.10;;
81367;SDS011;70823;50.056;14.398;2023-08-30T06:34:18;2.90;;;2.03;;
81367;SDS011;70823;50.056;14.398;2023-08-30T06:36:43;7.43;;;2.80;;
81367;SDS011;70823;50.056;14.398;2023-08-30T06:39:09;2.80;;;2.00;;
81367;SDS011;70823;50.056;14.398;2023-08-30T06:41:34;2.73;;;2.17;;
81367;SDS011;70823;50.056;14.398;2023-08-30T06:43:59;2.63;;;1.87;;
81367;SDS011;70823;50.056;14.398;2023-08-30T06:46:25;2.30;;;1.90;;
81367;SDS011;70823;50.056;14.398;2023-08-30T06:48:50;3.58;;;2.08;;
81367;SDS011;70823;50.056;14.398;2023-08-30T06:51:15;3.22;;;2.15;;
81367;SDS011;70823;50.056;14.398;2023-08-30T06:53:41;3.58;;;1.98;;
81367;SDS011;70823;50.056;14.398;2023-08-30T06:56:06;6.87;;;2.40;;
81367;SDS011;70823;50.056;14.398;2023-08-30T06:58:31;3.87;;;2.40;;
81367;SDS011;70823;50.056;14.398;2023-08-30T07:00:57;4.83;;;3.17;;
81367;SDS011;70823;50.056;14.398;2023-08-30T07:03:23;4.15;;;2.80;;
81367;SDS011;70823;50.056;14.398;2023-08-30T07:05:50;6.57;;;2.70;;
81367;SDS011;70823;50.056;14.398;2023-08-30T07:08:16;5.07;;;3.33;;
81367;SDS011;70823;50.056;14.398;2023-08-30T07:10:41;5.27;;;3.40;;
81367;SDS011;70823;50.056;14.398;2023-08-30T07:13:07;5.72;;;3.20;;
81367;SDS011;70823;50.056;14.398;2023-08-30T07:15:35;4.97;;;3.10;;
81367;SDS011;70823;50.056;14.398;2023-08-30T07:18:04;5.88;;;3.35;;
81367;SDS011;70823;50.056;14.398;2023-08-30T07:20:29;5.40;;;3.42;;
81367;SDS011;70823;50.056;14.398;2023-08-30T07:22:55;5.43;;;3.25;;
81367;SDS011;70823;50.056;14.398;2023-08-30T07:25:20;7.37;;;3.83;;
81367;SDS011;70823;50.056;14.398;2023-08-30T07:27:45;12.18;;;6.43;;
81367;SDS011;70823;50.056;14.398;2023-08-30T07:30:11;7.60;;;4.37;;
81367;SDS011;70823;50.056;14.398;2023-08-30T07:32:36;8.63;;;4.88;;
81367;SDS011;70823;50.056;14.398;2023-08-30T07:35:03;8.07;;;5.90;;
81367;SDS011;70823;50.056;14.398;2023-08-30T07:37:28;10.63;;;6.03;;
81367;SDS011;70823;50.056;14.398;2023-08-30T07:39:54;10.30;;;5.97;;
81367;SDS011;70823;50.056;14.398;2023-08-30T07:42:19;11.75;;;7.32;;
81367;SDS011;70823;50.056;14.398;2023-08-30T07:44:45;9.82;;;5.85;;
81367;SDS011;70823;50.056;14.398;2023-08-30T07:47:10;10.13;;;6.20;;
81367;SDS011;70823;50.056;14.398;2023-08-30T07:49:35;9.60;;;5.90;;
81367;SDS011;70823;50.056;14.398;2023-08-30T07:52:01;9.90;;;6.80;;
81367;SDS011;70823;50.056;14.398;2023-08-30T07:54:26;10.95;;;6.28;;
81367;SDS011;70823;50.056;14.398;2023-08-30T07:56:53;8.10;;;5.15;;
81367;SDS011;70823;50.056;14.398;2023-08-30T07:59:18;7.40;;;4.27;;
81367;SDS011;70823;50.056;14.398;2023-08-30T08:01:43;6.27;;;4.50;;
81367;SDS011;70823;50.056;14.398;2023-08-30T08:04:08;7.03;;;4.53;;
81367;SDS011;70823;50.056;14.398;2023-08-30T08:06:34;7.43;;;5.47;;
81367;SDS011;70823;50.056;14.398;2023-08-30T08:08:59;5.93;;;3.90;;
81367;SDS011;70823;50.056;14.398;2023-08-30T08:11:25;7.07;;;4.80;;
81367;SDS011;70823;50.056;14.398;2023-08-30T08:13:51;6.38;;;4.38;;
81367;SDS011;70823;50.056;14.398;2023-08-30T08:16:16;5.97;;;4.18;;
81367;SDS011;70823;50.056;14.398;2023-08-30T08:18:41;5.53;;;4.10;;
81367;SDS011;70823;50.056;14.398;2023-08-30T08:21:06;6.93;;;4.40;;
81367;SDS011;70823;50.056;14.398;2023-08-30T08:23:32;6.40;;;4.73;;
81367;SDS011;70823;50.056;14.398;2023-08-30T08:25:57;6.47;;;4.53;;
81367;SDS011;70823;50.056;14.398;2023-08-30T08:28:23;7.60;;;4.80;;
81367;SDS011;70823;50.056;14.398;2023-08-30T08:30:48;6.50;;;5.07;;
81367;SDS011;70823;50.056;14.398;2023-08-30T08:33:16;8.25;;;4.88;;
81367;SDS011;70823;50.056;14.398;2023-08-30T08:35:42;7.05;;;4.68;;
81367;SDS011;70823;50.056;14.398;2023-08-30T08:38:07;8.90;;;5.10;;
81367;SDS011;70823;50.056;14.398;2023-08-30T08:40:36;8.18;;;6.05;;
81367;SDS011;70823;50.056;14.398;2023-08-30T08:43:03;7.65;;;5.65;;
81367;SDS011;70823;50.056;14.398;2023-08-30T08:45:28;6.10;;;4.10;;
81367;SDS011;70823;50.056;14.398;2023-08-30T08:47:54;7.28;;;5.20;;
81367;SDS011;70823;50.056;14.398;2023-08-30T08:50:19;6.47;;;3.83;;
81367;SDS011;70823;50.056;14.398;2023-08-30T08:52:45;7.13;;;4.88;;
81367;SDS011;70823;50.056;14.398;2023-08-30T08:55:11;6.63;;;3.90;;
81367;SDS011;70823;50.056;14.398;2023-08-30T08:57:37;5.95;;;4.35;;
81367;SDS011;70823;50.056;14.398;2023-08-30T09:00:03;7.40;;;4.43;;
81367;SDS011;70823;50.056;14.398;2023-08-30T09:02:29;5.57;;;4.05;;
81367;SDS011;70823;50.056;14.398;2023-08-30T09:04:54;5.68;;;3.95;;
81367;SDS011;70823;50.056;14.398;2023-08-30T09:07:20;5.50;;;3.30;;
81367;SDS011;70823;50.056;14.398;2023-08-30T09:09:46;7.15;;;4.47;;
81367;SDS011;70823;50.056;14.398;2023-08-30T09:12:12;4.75;;;3.75;;
81367;SDS011;70823;50.056;14.398;2023-08-30T09:14:37;4.73;;;3.80;;
81367;SDS011;70823;50.056;14.398;2023-08-30T09:17:02;5.57;;;3.92;;
81367;SDS011;70823;50.056;14.398;2023-08-30T09:19:28;4.72;;;3.53;;
81367;SDS011;70823;50.056;14.398;2023-08-30T09:21:55;5.45;;;4.55;;
81367;SDS011;70823;50.056;14.398;2023-08-30T09:24:21;4.25;;;3.15;;
81367;SDS011;70823;50.056;14.398;2023-08-30T09:26:50;4.03;;;3.60;;
81367;SDS011;70823;50.056;14.398;2023-08-30T09:29:19;3.90;;;3.50;;
81367;SDS011;70823;50.056;14.398;2023-08-30T09:31:50;4.63;;;2.90;;
81367;SDS011;70823;50.056;14.398;2023-08-30T09:34:21;3.95;;;2.97;;
81367;SDS011;70823;50.056;14.398;2023-08-30T09:36:48;4.07;;;3.28;;
81367;SDS011;70823;50.056;14.398;2023-08-30T09:39:15;5.13;;;3.70;;
81367;SDS011;70823;50.056;14.398;2023-08-30T09:41:40;3.22;;;2.78;;
81367;SDS011;70823;50.056;14.398;2023-08-30T09:44:09;4.63;;;3.88;;
81367;SDS011;70823;50.056;14.398;2023-08-30T09:49:08;4.15;;;3.75;;
81367;SDS011;70823;50.056;14.398;2023-08-30T09:51:34;4.28;;;3.88;;
81367;SDS011;70823;50.056;14.398;2023-08-30T09:54:01;4.28;;;3.40;;
81367;SDS011;70823;50.056;14.398;2023-08-30T09:56:29;4.22;;;3.72;;
81367;SDS011;70823;50.056;14.398;2023-08-30T09:58:56;5.03;;;3.45;;
81367;SDS011;70823;50.056;14.398;2023-08-30T10:01:22;4.07;;;3.67;;
81367;SDS011;70823;50.056;14.398;2023-08-30T10:03:48;3.95;;;3.53;;
81367;SDS011;70823;50.056;14.398;2023-08-30T10:06:13;3.72;;;2.85;;
81367;SDS011;70823;50.056;14.398;2023-08-30T10:08:40;4.20;;;3.80;;
81367;SDS011;70823;50.056;14.398;2023-08-30T10:11:06;3.83;;;3.38;;
81367;SDS011;70823;50.056;14.398;2023-08-30T10:13:32;3.85;;;3.17;;
81367;SDS011;70823;50.056;14.398;2023-08-30T10:16:00;4.03;;;3.38;;
81367;SDS011;70823;50.056;14.398;2023-08-30T10:18:28;4.97;;;3.50;;
81367;SDS011;70823;50.056;14.398;2023-08-30T10:20:54;4.32;;;3.92;;
81367;SDS011;70823;50.056;14.398;2023-08-30T10:23:20;3.55;;;3.25;;
81367;SDS011;70823;50.056;14.398;2023-08-30T10:25:46;3.40;;;3.08;;
81367;SDS011;70823;50.056;14.398;2023-08-30T10:28:13;4.63;;;3.00;;
81367;SDS011;70823;50.056;14.398;2023-08-30T10:30:39;3.38;;;2.63;;
81367;SDS011;70823;50.056;14.398;2023-08-30T10:33:11;3.53;;;2.92;;
81367;SDS011;70823;50.056;14.398;2023-08-30T10:35:46;3.63;;;2.85;;
81367;SDS011;70823;50.056;14.398;2023-08-30T10:38:13;5.57;;;3.58;;
81367;SDS011;70823;50.056;14.398;2023-08-30T10:40:49;3.60;;;3.00;;
81367;SDS011;70823;50.056;14.398;2023-08-30T10:43:15;3.55;;;2.80;;
81367;SDS011;70823;50.056;14.398;2023-08-30T10:45:41;3.22;;;2.90;;
81367;SDS011;70823;50.056;14.398;2023-08-30T10:48:06;4.23;;;3.43;;
81367;SDS011;70823;50.056;14.398;2023-08-30T10:50:33;4.20;;;3.00;;
81367;SDS011;70823;50.056;14.398;2023-08-30T10:52:58;4.28;;;3.22;;
81367;SDS011;70823;50.056;14.398;2023-08-30T10:55:24;3.38;;;3.08;;
81367;SDS011;70823;50.056;14.398;2023-08-30T10:58:02;3.78;;;3.38;;
81367;SDS011;70823;50.056;14.398;2023-08-30T11:00:30;3.63;;;3.33;;
81367;SDS011;70823;50.056;14.398;2023-08-30T11:02:56;4.00;;;3.60;;
81367;SDS011;70823;50.056;14.398;2023-08-30T11:05:22;3.95;;;3.22;;
81367;SDS011;70823;50.056;14.398;2023-08-30T11:07:49;3.80;;;3.10;;
81367;SDS011;70823;50.056;14.398;2023-08-30T11:10:15;3.60;;;3.30;;
81367;SDS011;70823;50.056;14.398;2023-08-30T11:12:41;4.53;;;3.67;;
81367;SDS011;70823;50.056;14.398;2023-08-30T11:15:07;3.67;;;3.05;;
81367;SDS011;70823;50.056;14.398;2023-08-30T11:17:33;3.65;;;3.25;;
81367;SDS011;70823;50.056;14.398;2023-08-30T11:20:09;3.47;;;3.17;;
81367;SDS011;70823;50.056;14.398;2023-08-30T11:22:45;3.35;;;3.05;;
81367;SDS011;70823;50.056;14.398;2023-08-30T11:25:12;3.42;;;3.08;;
81367;SDS011;70823;50.056;14.398;2023-08-30T11:27:38;3.55;;;3.15;;
81367;SDS011;70823;50.056;14.398;2023-08-30T11:30:04;4.05;;;3.72;;
81367;SDS011;70823;50.056;14.398;2023-08-30T11:32:40;4.35;;;3.33;;
81367;SDS011;70823;50.056;14.398;2023-08-30T11:35:08;4.55;;;4.10;;
81367;SDS011;70823;50.056;14.398;2023-08-30T11:37:33;3.67;;;3.28;;
81367;SDS011;70823;50.056;14.398;2023-08-30T11:39:59;3.75;;;3.17;;
81367;SDS011;70823;50.056;14.398;2023-08-30T11:42:25;3.90;;;3.55;;
81367;SDS011;70823;50.056;14.398;2023-08-30T11:44:51;3.95;;;3.33;;
81367;SDS011;70823;50.056;14.398;2023-08-30T11:47:23;3.90;;;3.50;;
81367;SDS011;70823;50.056;14.398;2023-08-30T11:49:49;3.17;;;2.80;;
81367;SDS011;70823;50.056;14.398;2023-08-30T11:52:15;4.03;;;3.30;;
81367;SDS011;70823;50.056;14.398;2023-08-30T11:54:41;4.15;;;3.35;;
81367;SDS011;70823;50.056;14.398;2023-08-30T11:57:07;4.18;;;3.20;;
81367;SDS011;70823;50.056;14.398;2023-08-30T11:59:34;4.60;;;3.72;;
81367;SDS011;70823;50.056;14.398;2023-08-30T12:02:00;4.30;;;3.28;;
81367;SDS011;70823;50.056;14.398;2023-08-30T12:04:26;3.78;;;3.30;;
81367;SDS011;70823;50.056;14.398;2023-08-30T12:06:54;3.70;;;3.40;;
81367;SDS011;70823;50.056;14.398;2023-08-30T12:09:20;3.65;;;2.70;;
81367;SDS011;70823;50.056;14.398;2023-08-30T12:11:51;4.00;;;3.60;;
81367;SDS011;70823;50.056;14.398;2023-08-30T12:14:16;3.90;;;3.15;;
81367;SDS011;70823;50.056;14.398;2023-08-30T12:16:42;3.70;;;3.40;;
81367;SDS011;70823;50.056;14.398;2023-08-30T12:19:11;3.65;;;2.90;;
81367;SDS011;70823;50.056;14.398;2023-08-30T12:21:43;3.67;;;3.30;;
81367;SDS011;70823;50.056;14.398;2023-08-30T12:24:09;3.50;;;3.20;;
81367;SDS011;70823;50.056;14.398;2023-08-30T12:26:35;4.05;;;3.65;;
81367;SDS011;70823;50.056;14.398;2023-08-30T12:29:03;4.15;;;3.55;;
81367;SDS011;70823;50.056;14.398;2023-08-30T12:31:28;5.15;;;3.67;;
81367;SDS011;70823;50.056;14.398;2023-08-30T12:33:54;4.17;;;3.83;;
81367;SDS011;70823;50.056;14.398;2023-08-30T12:36:19;4.00;;;3.47;;
81367;SDS011;70823;50.056;14.398;2023-08-30T12:38:44;4.20;;;3.80;;
81367;SDS011;70823;50.056;14.398;2023-08-30T12:41:10;4.27;;;3.90;;
81367;SDS011;70823;50.056;14.398;2023-08-30T12:43:35;4.35;;;3.95;;
81367;SDS011;70823;50.056;14.398;2023-08-30T12:46:01;3.77;;;3.43;;
81367;SDS011;70823;50.056;14.398;2023-08-30T12:48:26;4.37;;;3.70;;
81367;SDS011;70823;50.056;14.398;2023-08-30T12:50:51;4.60;;;4.20;;
81367;SDS011;70823;50.056;14.398;2023-08-30T12:53:16;4.65;;;3.75;;
81367;SDS011;70823;50.056;14.398;2023-08-30T12:55:42;3.90;;;3.53;;
81367;SDS011;70823;50.056;14.398;2023-08-30T12:58:07;4.82;;;3.67;;
81367;SDS011;70823;50.056;14.398;2023-08-30T13:00:33;4.03;;;3.72;;
81367;SDS011;70823;50.056;14.398;2023-08-30T13:02:59;3.85;;;3.47;;
81367;SDS011;70823;50.056;14.398;2023-08-30T13:05:25;4.05;;;3.53;;
81367;SDS011;70823;50.056;14.398;2023-08-30T13:07:50;4.07;;;3.67;;
81367;SDS011;70823;50.056;14.398;2023-08-30T13:10:16;5.28;;;3.90;;
81367;SDS011;70823;50.056;14.398;2023-08-30T13:12:41;3.92;;;3.63;;
81367;SDS011;70823;50.056;14.398;2023-08-30T13:15:07;4.05;;;3.63;;
81367;SDS011;70823;50.056;14.398;2023-08-30T13:17:33;4.45;;;4.00;;
81367;SDS011;70823;50.056;14.398;2023-08-30T13:19:58;4.03;;;3.63;;
81367;SDS011;70823;50.056;14.398;2023-08-30T13:22:24;4.28;;;3.85;;
81367;SDS011;70823;50.056;14.398;2023-08-30T13:24:50;4.20;;;3.80;;
81367;SDS011;70823;50.056;14.398;2023-08-30T13:27:15;4.40;;;3.65;;
81367;SDS011;70823;50.056;14.398;2023-08-30T13:29:41;4.78;;;3.75;;
81367;SDS011;70823;50.056;14.398;2023-08-30T13:32:06;4.20;;;3.80;;
81367;SDS011;70823;50.056;14.398;2023-08-30T13:34:32;3.70;;;3.30;;
81367;SDS011;70823;50.056;14.398;2023-08-30T13:36:57;3.87;;;3.47;;
81367;SDS011;70823;50.056;14.398;2023-08-30T13:39:22;4.53;;;4.13;;
81367;SDS011;70823;50.056;14.398;2023-08-30T13:41:48;4.43;;;4.00;;
81367;SDS011;70823;50.056;14.398;2023-08-30T13:44:13;4.47;;;4.07;;
81367;SDS011;70823;50.056;14.398;2023-08-30T13:46:39;4.78;;;4.38;;
81367;SDS011;70823;50.056;14.398;2023-08-30T13:49:04;6.00;;;5.50;;
81367;SDS011;70823;50.056;14.398;2023-08-30T13:51:30;5.43;;;4.95;;
81367;SDS011;70823;50.056;14.398;2023-08-30T13:53:55;4.45;;;4.05;;
81367;SDS011;70823;50.056;14.398;2023-08-30T13:56:21;4.60;;;4.15;;
81367;SDS011;70823;50.056;14.398;2023-08-30T13:58:47;5.22;;;4.47;;
81367;SDS011;70823;50.056;14.398;2023-08-30T14:01:12;4.60;;;4.13;;
81367;SDS011;70823;50.056;14.398;2023-08-30T14:03:38;4.83;;;4.33;;
81367;SDS011;70823;50.056;14.398;2023-08-30T14:06:03;5.40;;;4.47;;
81367;SDS011;70823;50.056;14.398;2023-08-30T14:08:29;4.50;;;4.10;;
81367;SDS011;70823;50.056;14.398;2023-08-30T14:10:54;4.60;;;4.20;;
81367;SDS011;70823;50.056;14.398;2023-08-30T14:13:20;5.05;;;4.60;;
81367;SDS011;70823;50.056;14.398;2023-08-30T14:15:45;4.82;;;4.30;;
81367;SDS011;70823;50.056;14.398;2023-08-30T14:18:11;4.78;;;4.38;;
81367;SDS011;70823;50.056;14.398;2023-08-30T14:20:36;3.35;;;2.97;;
81367;SDS011;70823;50.056;14.398;2023-08-30T14:23:01;4.93;;;4.53;;
81367;SDS011;70823;50.056;14.398;2023-08-30T14:25:27;5.13;;;4.60;;
81367;SDS011;70823;50.056;14.398;2023-08-30T14:27:52;7.35;;;5.07;;
81367;SDS011;70823;50.056;14.398;2023-08-30T14:30:18;4.55;;;4.13;;
81367;SDS011;70823;50.056;14.398;2023-08-30T14:32:43;4.40;;;4.00;;
81367;SDS011;70823;50.056;14.398;2023-08-30T14:35:09;5.38;;;4.88;;
81367;SDS011;70823;50.056;14.398;2023-08-30T14:37:34;4.65;;;4.25;;